Polar Bear — ZMA2072 — position and weather

sailwx.info

Track history (hours):
 
Tides and Currents Weather Stations Pressure Air Temp Water Temp Dewpoint Dewpoint Depression Visibility Wind Speed Wind Dir Waves Ship Positions

Polar Bear

Last reported at 2016-Sep-05 20:33 UTC. Time now 2016-Dec-11 06:20 UTC.
Position N 49°10' W 123°55'.
Warning: this ship's position is months out of date.

Length 28 m; draft 2.3 m.

Type: Pleasure craft. MMSI: 512172000.

Date/timePositionNaut miles runAvg speedWind from/ knotsBaromVisibWave heightAir tempDewpointWater temp
2016-Sep-05 20:33N 49°10' W 123°55'9 8.9
2016-Sep-05 19:33N 49°05' W 123°44'10 9.7
2016-Sep-05 18:32N 48°58' W 123°34'9 9.2
2016-Sep-05 17:33N 48°52' W 123°23'3 3.0
2016-Sep-05 16:33N 48°51' W 123°19'1 1.2
2016-Sep-05 15:33N 48°52' W 123°21'9 8.7
2016-Sep-05 14:33N 48°44' W 123°14'1 0.9
2016-Sep-05 13:31N 48°45' W 123°14'0 0.0
2016-Sep-05 12:31N 48°45' W 123°14'0 0.0
2016-Sep-05 11:31N 48°45' W 123°14'0 0.0
2016-Sep-05 10:31N 48°45' W 123°14'0 0.0
2016-Sep-05 09:31N 48°45' W 123°14'0 0.0
2016-Sep-05 08:31N 48°45' W 123°14'0 0.0
2016-Sep-05 07:31N 48°45' W 123°14'0 0.0
2016-Sep-05 06:31N 48°45' W 123°14'0 0.0
2016-Sep-05 04:31N 48°45' W 123°14'0 0.0
2016-Sep-05 03:31N 48°45' W 123°14'0 0.0
2016-Sep-05 02:31N 48°45' W 123°14'0 0.0
2016-Sep-05 01:31N 48°45' W 123°14'0 0.0
2016-Sep-05 00:31N 48°45' W 123°14'0 0.0
2016-Sep-04 23:31N 48°45' W 123°14'3 1.3
2016-Sep-04 21:21N 48°46' W 123°18'7 8.7
2016-Sep-04 20:33N 48°51' W 123°25'1010.1
2016-Sep-04 19:33N 48°58' W 123°36'10 9.7
2016-Sep-04 18:33N 49°05' W 123°45'3 1.1
2016-Sep-04 15:30N 49°08' W 123°48'0 0.0
2016-Sep-04 08:27N 49°08' W 123°48'0 0.0
2016-Sep-04 06:28N 49°08' W 123°48'5 2.4
2016-Sep-04 04:12N 49°10' W 123°56'0 0.0
2016-Sep-04 03:21N 49°10' W 123°56'0 0.0
2016-Sep-03 19:28N 49°10' W 123°56'  
Track history (hours):
 
Tides and Currents Weather Stations Pressure Air Temp Water Temp Dewpoint Dewpoint Depression Visibility Wind Speed Wind Dir Waves Ship Positions

Polar Bear

Last reported at 2016-Sep-05 20:33 UTC. Time now 2016-Dec-11 06:20 UTC.
Position N 49°10' W 123°55'.
Warning: this ship's position is months out of date.

Length 28 m; draft 2.3 m.

Type: Pleasure craft. MMSI: 512172000.

Date/timePositionNaut miles runAvg speedWind from/ knotsBaromVisibWave heightAir tempDewpointWater temp
2016-Sep-05 20:33N 49°10' W 123°55'9 8.9
2016-Sep-05 19:33N 49°05' W 123°44'10 9.7
2016-Sep-05 18:32N 48°58' W 123°34'9 9.2
2016-Sep-05 17:33N 48°52' W 123°23'3 3.0
2016-Sep-05 16:33N 48°51' W 123°19'1 1.2
2016-Sep-05 15:33N 48°52' W 123°21'9 8.7
2016-Sep-05 14:33N 48°44' W 123°14'1 0.9
2016-Sep-05 13:31N 48°45' W 123°14'0 0.0
2016-Sep-05 12:31N 48°45' W 123°14'0 0.0
2016-Sep-05 11:31N 48°45' W 123°14'0 0.0
2016-Sep-05 10:31N 48°45' W 123°14'0 0.0
2016-Sep-05 09:31N 48°45' W 123°14'0 0.0
2016-Sep-05 08:31N 48°45' W 123°14'0 0.0
2016-Sep-05 07:31N 48°45' W 123°14'0 0.0
2016-Sep-05 06:31N 48°45' W 123°14'0 0.0
2016-Sep-05 04:31N 48°45' W 123°14'0 0.0
2016-Sep-05 03:31N 48°45' W 123°14'0 0.0
2016-Sep-05 02:31N 48°45' W 123°14'0 0.0
2016-Sep-05 01:31N 48°45' W 123°14'0 0.0
2016-Sep-05 00:31N 48°45' W 123°14'0 0.0
2016-Sep-04 23:31N 48°45' W 123°14'3 1.3
2016-Sep-04 21:21N 48°46' W 123°18'7 8.7
2016-Sep-04 20:33N 48°51' W 123°25'1010.1
2016-Sep-04 19:33N 48°58' W 123°36'10 9.7
2016-Sep-04 18:33N 49°05' W 123°45'3 1.1
2016-Sep-04 15:30N 49°08' W 123°48'0 0.0
2016-Sep-04 08:27N 49°08' W 123°48'0 0.0
2016-Sep-04 06:28N 49°08' W 123°48'5 2.4
2016-Sep-04 04:12N 49°10' W 123°56'0 0.0
2016-Sep-04 03:21N 49°10' W 123°56'0 0.0
2016-Sep-03 19:28N 49°10' W 123°56'  

Dump ship's entire track history